sensor_id;sensor_type;location;lat;lon;timestamp;P1;durP1;ratioP1;P2;durP2;ratioP2
12433;SDS011;6281;49.038;8.372;2023-07-29T00:02:12;1.00;;;0.90;;
12433;SDS011;6281;49.038;8.372;2023-07-29T00:04:39;2.80;;;2.50;;
12433;SDS011;6281;49.038;8.372;2023-07-29T00:07:06;1.83;;;1.50;;
12433;SDS011;6281;49.038;8.372;2023-07-29T00:09:33;4.20;;;2.80;;
12433;SDS011;6281;49.038;8.372;2023-07-29T00:12:01;1.03;;;0.83;;
12433;SDS011;6281;49.038;8.372;2023-07-29T00:14:29;1.50;;;0.97;;
12433;SDS011;6281;49.038;8.372;2023-07-29T00:16:55;2.87;;;0.97;;
12433;SDS011;6281;49.038;8.372;2023-07-29T00:19:22;1.60;;;1.20;;
12433;SDS011;6281;49.038;8.372;2023-07-29T00:21:49;1.43;;;1.03;;
12433;SDS011;6281;49.038;8.372;2023-07-29T00:24:16;0.83;;;0.83;;
12433;SDS011;6281;49.038;8.372;2023-07-29T00:26:50;1.50;;;1.20;;
12433;SDS011;6281;49.038;8.372;2023-07-29T00:29:18;1.23;;;1.10;;
12433;SDS011;6281;49.038;8.372;2023-07-29T00:31:45;1.53;;;1.07;;
12433;SDS011;6281;49.038;8.372;2023-07-29T00:34:12;1.87;;;1.10;;
12433;SDS011;6281;49.038;8.372;2023-07-29T00:36:42;3.53;;;3.20;;
12433;SDS011;6281;49.038;8.372;2023-07-29T00:39:09;1.10;;;1.00;;
12433;SDS011;6281;49.038;8.372;2023-07-29T00:41:36;3.50;;;1.10;;
12433;SDS011;6281;49.038;8.372;2023-07-29T00:44:03;2.23;;;1.30;;
12433;SDS011;6281;49.038;8.372;2023-07-29T00:46:32;3.03;;;1.00;;
12433;SDS011;6281;49.038;8.372;2023-07-29T00:49:00;1.17;;;1.07;;
12433;SDS011;6281;49.038;8.372;2023-07-29T00:51:28;2.60;;;1.30;;
12433;SDS011;6281;49.038;8.372;2023-07-29T00:53:55;3.63;;;0.97;;
12433;SDS011;6281;49.038;8.372;2023-07-29T00:56:22;5.10;;;1.13;;
12433;SDS011;6281;49.038;8.372;2023-07-29T00:58:49;1.10;;;0.93;;
12433;SDS011;6281;49.038;8.372;2023-07-29T01:01:16;1.67;;;1.10;;
12433;SDS011;6281;49.038;8.372;2023-07-29T01:03:45;0.97;;;0.97;;
12433;SDS011;6281;49.038;8.372;2023-07-29T01:06:13;1.27;;;1.03;;
12433;SDS011;6281;49.038;8.372;2023-07-29T01:08:50;1.30;;;0.67;;
12433;SDS011;6281;49.038;8.372;2023-07-29T01:11:25;1.47;;;1.23;;
12433;SDS011;6281;49.038;8.372;2023-07-29T01:14:10;1.40;;;1.10;;
12433;SDS011;6281;49.038;8.372;2023-07-29T01:16:45;2.70;;;1.07;;
12433;SDS011;6281;49.038;8.372;2023-07-29T01:19:20;0.97;;;0.90;;
12433;SDS011;6281;49.038;8.372;2023-07-29T01:22:01;1.67;;;1.20;;
12433;SDS011;6281;49.038;8.372;2023-07-29T01:24:32;1.13;;;0.93;;
12433;SDS011;6281;49.038;8.372;2023-07-29T01:26:59;1.10;;;0.90;;
12433;SDS011;6281;49.038;8.372;2023-07-29T01:29:28;1.60;;;1.10;;
12433;SDS011;6281;49.038;8.372;2023-07-29T01:31:56;1.53;;;0.83;;
12433;SDS011;6281;49.038;8.372;2023-07-29T01:34:29;3.40;;;0.90;;
12433;SDS011;6281;49.038;8.372;2023-07-29T01:37:01;1.10;;;0.73;;
12433;SDS011;6281;49.038;8.372;2023-07-29T01:39:33;0.93;;;0.80;;
12433;SDS011;6281;49.038;8.372;2023-07-29T01:42:04;1.43;;;0.93;;
12433;SDS011;6281;49.038;8.372;2023-07-29T01:44:31;1.30;;;0.90;;
12433;SDS011;6281;49.038;8.372;2023-07-29T01:46:59;4.20;;;1.10;;
12433;SDS011;6281;49.038;8.372;2023-07-29T01:49:26;3.20;;;1.10;;
12433;SDS011;6281;49.038;8.372;2023-07-29T01:51:53;2.33;;;1.10;;
12433;SDS011;6281;49.038;8.372;2023-07-29T01:54:20;2.17;;;1.20;;
12433;SDS011;6281;49.038;8.372;2023-07-29T01:56:48;1.33;;;0.97;;
12433;SDS011;6281;49.038;8.372;2023-07-29T01:59:16;0.93;;;0.90;;
12433;SDS011;6281;49.038;8.372;2023-07-29T02:01:43;1.37;;;1.23;;
12433;SDS011;6281;49.038;8.372;2023-07-29T02:04:11;2.03;;;0.97;;
12433;SDS011;6281;49.038;8.372;2023-07-29T02:06:38;3.27;;;2.47;;
12433;SDS011;6281;49.038;8.372;2023-07-29T02:09:05;9.30;;;6.17;;
12433;SDS011;6281;49.038;8.372;2023-07-29T02:11:32;4.77;;;3.50;;
12433;SDS011;6281;49.038;8.372;2023-07-29T02:14:00;1.33;;;1.23;;
12433;SDS011;6281;49.038;8.372;2023-07-29T02:16:27;1.40;;;1.10;;
12433;SDS011;6281;49.038;8.372;2023-07-29T02:18:54;2.10;;;1.20;;
12433;SDS011;6281;49.038;8.372;2023-07-29T02:21:21;1.60;;;1.50;;
12433;SDS011;6281;49.038;8.372;2023-07-29T02:23:48;1.00;;;0.90;;
12433;SDS011;6281;49.038;8.372;2023-07-29T02:26:15;9.17;;;1.33;;
12433;SDS011;6281;49.038;8.372;2023-07-29T02:28:42;1.33;;;1.20;;
12433;SDS011;6281;49.038;8.372;2023-07-29T02:31:14;1.37;;;1.13;;
12433;SDS011;6281;49.038;8.372;2023-07-29T02:33:42;2.60;;;0.93;;
12433;SDS011;6281;49.038;8.372;2023-07-29T02:36:11;2.00;;;1.10;;
12433;SDS011;6281;49.038;8.372;2023-07-29T02:38:39;1.40;;;1.17;;
12433;SDS011;6281;49.038;8.372;2023-07-29T02:41:06;4.53;;;1.37;;
12433;SDS011;6281;49.038;8.372;2023-07-29T02:43:34;3.67;;;1.03;;
12433;SDS011;6281;49.038;8.372;2023-07-29T02:46:01;1.30;;;1.00;;
12433;SDS011;6281;49.038;8.372;2023-07-29T02:48:29;5.40;;;1.57;;
12433;SDS011;6281;49.038;8.372;2023-07-29T02:50:56;1.30;;;1.17;;
12433;SDS011;6281;49.038;8.372;2023-07-29T02:53:23;3.97;;;1.13;;
12433;SDS011;6281;49.038;8.372;2023-07-29T02:55:50;1.80;;;1.37;;
12433;SDS011;6281;49.038;8.372;2023-07-29T02:58:17;1.30;;;1.07;;
12433;SDS011;6281;49.038;8.372;2023-07-29T03:00:43;1.33;;;1.20;;
12433;SDS011;6281;49.038;8.372;2023-07-29T03:03:12;1.93;;;1.10;;
12433;SDS011;6281;49.038;8.372;2023-07-29T03:05:40;2.70;;;1.10;;
12433;SDS011;6281;49.038;8.372;2023-07-29T03:08:07;2.80;;;1.13;;
12433;SDS011;6281;49.038;8.372;2023-07-29T03:10:34;1.77;;;1.20;;
12433;SDS011;6281;49.038;8.372;2023-07-29T03:13:02;2.90;;;1.27;;
12433;SDS011;6281;49.038;8.372;2023-07-29T03:15:29;2.03;;;1.23;;
12433;SDS011;6281;49.038;8.372;2023-07-29T03:17:55;6.10;;;1.37;;
12433;SDS011;6281;49.038;8.372;2023-07-29T03:20:22;3.20;;;1.30;;
12433;SDS011;6281;49.038;8.372;2023-07-29T03:22:50;3.17;;;1.00;;
12433;SDS011;6281;49.038;8.372;2023-07-29T03:25:17;2.03;;;1.43;;
12433;SDS011;6281;49.038;8.372;2023-07-29T03:27:43;2.00;;;1.10;;
12433;SDS011;6281;49.038;8.372;2023-07-29T03:30:10;1.10;;;1.00;;
12433;SDS011;6281;49.038;8.372;2023-07-29T03:32:38;2.07;;;1.00;;
12433;SDS011;6281;49.038;8.372;2023-07-29T03:35:09;1.10;;;1.00;;
12433;SDS011;6281;49.038;8.372;2023-07-29T03:37:36;1.43;;;1.20;;
12433;SDS011;6281;49.038;8.372;2023-07-29T03:40:05;1.33;;;1.10;;
12433;SDS011;6281;49.038;8.372;2023-07-29T03:42:32;1.10;;;1.00;;
12433;SDS011;6281;49.038;8.372;2023-07-29T03:44:59;2.53;;;1.27;;
12433;SDS011;6281;49.038;8.372;2023-07-29T03:47:26;4.60;;;1.33;;
12433;SDS011;6281;49.038;8.372;2023-07-29T03:49:53;3.33;;;1.10;;
12433;SDS011;6281;49.038;8.372;2023-07-29T03:52:20;3.30;;;1.40;;
12433;SDS011;6281;49.038;8.372;2023-07-29T03:54:47;2.60;;;1.30;;
12433;SDS011;6281;49.038;8.372;2023-07-29T03:57:15;1.47;;;1.37;;
12433;SDS011;6281;49.038;8.372;2023-07-29T03:59:42;3.20;;;1.53;;
12433;SDS011;6281;49.038;8.372;2023-07-29T04:02:08;1.53;;;1.30;;
12433;SDS011;6281;49.038;8.372;2023-07-29T04:04:35;4.93;;;1.30;;
12433;SDS011;6281;49.038;8.372;2023-07-29T04:07:02;2.60;;;1.60;;
12433;SDS011;6281;49.038;8.372;2023-07-29T04:09:40;2.73;;;1.33;;
12433;SDS011;6281;49.038;8.372;2023-07-29T04:12:08;2.10;;;1.50;;
12433;SDS011;6281;49.038;8.372;2023-07-29T04:14:36;1.83;;;1.30;;
12433;SDS011;6281;49.038;8.372;2023-07-29T04:17:03;1.63;;;1.33;;
12433;SDS011;6281;49.038;8.372;2023-07-29T04:19:30;2.33;;;1.40;;
12433;SDS011;6281;49.038;8.372;2023-07-29T04:21:57;2.30;;;1.50;;
12433;SDS011;6281;49.038;8.372;2023-07-29T04:24:24;2.00;;;1.60;;
12433;SDS011;6281;49.038;8.372;2023-07-29T04:26:50;3.53;;;1.60;;
12433;SDS011;6281;49.038;8.372;2023-07-29T04:29:17;3.07;;;1.67;;
12433;SDS011;6281;49.038;8.372;2023-07-29T04:31:45;2.57;;;1.53;;
12433;SDS011;6281;49.038;8.372;2023-07-29T04:34:12;1.80;;;1.30;;
12433;SDS011;6281;49.038;8.372;2023-07-29T04:36:39;2.20;;;1.80;;
12433;SDS011;6281;49.038;8.372;2023-07-29T04:39:06;2.00;;;1.80;;
12433;SDS011;6281;49.038;8.372;2023-07-29T04:41:33;2.97;;;1.50;;
12433;SDS011;6281;49.038;8.372;2023-07-29T04:43:59;2.23;;;1.67;;
12433;SDS011;6281;49.038;8.372;2023-07-29T04:46:26;4.67;;;1.83;;
12433;SDS011;6281;49.038;8.372;2023-07-29T04:48:55;2.87;;;1.73;;
12433;SDS011;6281;49.038;8.372;2023-07-29T04:51:22;2.17;;;1.80;;
12433;SDS011;6281;49.038;8.372;2023-07-29T04:53:49;2.63;;;2.13;;
12433;SDS011;6281;49.038;8.372;2023-07-29T04:56:16;2.73;;;1.70;;
12433;SDS011;6281;49.038;8.372;2023-07-29T04:58:43;2.97;;;1.97;;
12433;SDS011;6281;49.038;8.372;2023-07-29T05:01:10;2.00;;;1.70;;
12433;SDS011;6281;49.038;8.372;2023-07-29T05:03:36;1.93;;;1.70;;
12433;SDS011;6281;49.038;8.372;2023-07-29T05:06:06;2.13;;;1.80;;
12433;SDS011;6281;49.038;8.372;2023-07-29T05:08:33;2.23;;;1.60;;
12433;SDS011;6281;49.038;8.372;2023-07-29T05:11:06;3.03;;;2.20;;
12433;SDS011;6281;49.038;8.372;2023-07-29T05:13:33;2.40;;;1.60;;
12433;SDS011;6281;49.038;8.372;2023-07-29T05:16:00;4.13;;;2.00;;
12433;SDS011;6281;49.038;8.372;2023-07-29T05:18:27;2.50;;;2.00;;
12433;SDS011;6281;49.038;8.372;2023-07-29T05:20:54;3.30;;;1.97;;
12433;SDS011;6281;49.038;8.372;2023-07-29T05:23:22;2.53;;;2.10;;
12433;SDS011;6281;49.038;8.372;2023-07-29T05:25:49;4.20;;;2.20;;
12433;SDS011;6281;49.038;8.372;2023-07-29T05:28:16;2.13;;;1.90;;
12433;SDS011;6281;49.038;8.372;2023-07-29T05:30:43;4.00;;;2.00;;
12433;SDS011;6281;49.038;8.372;2023-07-29T05:33:10;2.87;;;2.13;;
12433;SDS011;6281;49.038;8.372;2023-07-29T05:35:37;2.23;;;1.90;;
12433;SDS011;6281;49.038;8.372;2023-07-29T05:38:04;3.13;;;1.97;;
12433;SDS011;6281;49.038;8.372;2023-07-29T05:40:34;2.83;;;1.90;;
12433;SDS011;6281;49.038;8.372;2023-07-29T05:43:01;3.07;;;1.80;;
12433;SDS011;6281;49.038;8.372;2023-07-29T05:45:29;2.87;;;1.80;;
12433;SDS011;6281;49.038;8.372;2023-07-29T05:47:56;2.97;;;2.10;;
12433;SDS011;6281;49.038;8.372;2023-07-29T05:50:23;3.40;;;2.20;;
12433;SDS011;6281;49.038;8.372;2023-07-29T05:52:50;5.23;;;2.20;;
12433;SDS011;6281;49.038;8.372;2023-07-29T05:55:17;3.13;;;2.13;;
12433;SDS011;6281;49.038;8.372;2023-07-29T05:57:46;3.47;;;2.00;;
12433;SDS011;6281;49.038;8.372;2023-07-29T06:00:12;3.50;;;2.27;;
12433;SDS011;6281;49.038;8.372;2023-07-29T06:02:39;4.97;;;2.13;;
12433;SDS011;6281;49.038;8.372;2023-07-29T06:05:07;3.70;;;1.80;;
12433;SDS011;6281;49.038;8.372;2023-07-29T06:07:34;3.63;;;2.20;;
12433;SDS011;6281;49.038;8.372;2023-07-29T06:10:12;2.20;;;1.80;;
12433;SDS011;6281;49.038;8.372;2023-07-29T06:12:39;5.03;;;2.20;;
12433;SDS011;6281;49.038;8.372;2023-07-29T06:15:08;2.33;;;1.80;;
12433;SDS011;6281;49.038;8.372;2023-07-29T06:17:35;3.30;;;2.20;;
12433;SDS011;6281;49.038;8.372;2023-07-29T06:20:02;2.60;;;2.17;;
12433;SDS011;6281;49.038;8.372;2023-07-29T06:22:30;2.27;;;1.80;;
12433;SDS011;6281;49.038;8.372;2023-07-29T06:24:57;4.10;;;2.10;;
12433;SDS011;6281;49.038;8.372;2023-07-29T06:27:24;2.87;;;2.10;;
12433;SDS011;6281;49.038;8.372;2023-07-29T06:29:51;3.30;;;1.90;;
12433;SDS011;6281;49.038;8.372;2023-07-29T06:32:19;3.17;;;1.97;;
12433;SDS011;6281;49.038;8.372;2023-07-29T06:34:46;4.70;;;2.40;;
12433;SDS011;6281;49.038;8.372;2023-07-29T06:37:13;2.30;;;1.90;;
12433;SDS011;6281;49.038;8.372;2023-07-29T06:39:40;2.97;;;2.20;;
12433;SDS011;6281;49.038;8.372;2023-07-29T06:42:07;2.60;;;1.80;;
12433;SDS011;6281;49.038;8.372;2023-07-29T06:44:34;2.20;;;2.00;;
12433;SDS011;6281;49.038;8.372;2023-07-29T06:47:01;2.97;;;2.23;;
12433;SDS011;6281;49.038;8.372;2023-07-29T06:49:29;3.60;;;2.37;;
12433;SDS011;6281;49.038;8.372;2023-07-29T06:51:56;4.33;;;2.10;;
12433;SDS011;6281;49.038;8.372;2023-07-29T06:54:23;2.93;;;2.57;;
12433;SDS011;6281;49.038;8.372;2023-07-29T06:56:50;2.33;;;2.13;;
12433;SDS011;6281;49.038;8.372;2023-07-29T06:59:25;3.10;;;2.03;;
12433;SDS011;6281;49.038;8.372;2023-07-29T07:01:52;2.60;;;2.03;;
12433;SDS011;6281;49.038;8.372;2023-07-29T07:04:19;3.17;;;2.17;;
12433;SDS011;6281;49.038;8.372;2023-07-29T07:06:47;3.37;;;2.20;;
12433;SDS011;6281;49.038;8.372;2023-07-29T07:09:14;4.27;;;2.17;;
12433;SDS011;6281;49.038;8.372;2023-07-29T07:11:41;3.87;;;2.30;;
12433;SDS011;6281;49.038;8.372;2023-07-29T07:14:08;3.03;;;2.23;;
12433;SDS011;6281;49.038;8.372;2023-07-29T07:16:35;2.70;;;2.43;;
12433;SDS011;6281;49.038;8.372;2023-07-29T07:19:04;5.27;;;2.63;;
12433;SDS011;6281;49.038;8.372;2023-07-29T07:21:31;2.30;;;2.10;;
12433;SDS011;6281;49.038;8.372;2023-07-29T07:23:59;3.00;;;2.10;;
12433;SDS011;6281;49.038;8.372;2023-07-29T07:26:26;3.87;;;2.13;;
12433;SDS011;6281;49.038;8.372;2023-07-29T07:28:53;3.67;;;2.27;;
12433;SDS011;6281;49.038;8.372;2023-07-29T07:31:20;3.17;;;2.07;;
12433;SDS011;6281;49.038;8.372;2023-07-29T07:33:47;2.33;;;1.93;;
12433;SDS011;6281;49.038;8.372;2023-07-29T07:36:13;3.50;;;2.00;;
12433;SDS011;6281;49.038;8.372;2023-07-29T07:38:40;2.63;;;2.10;;
12433;SDS011;6281;49.038;8.372;2023-07-29T07:41:09;2.40;;;2.00;;
12433;SDS011;6281;49.038;8.372;2023-07-29T07:43:35;3.17;;;2.20;;
12433;SDS011;6281;49.038;8.372;2023-07-29T07:46:02;2.87;;;2.30;;
12433;SDS011;6281;49.038;8.372;2023-07-29T07:48:30;2.83;;;2.20;;
12433;SDS011;6281;49.038;8.372;2023-07-29T07:50:58;3.60;;;2.00;;
12433;SDS011;6281;49.038;8.372;2023-07-29T07:53:25;3.13;;;2.20;;
12433;SDS011;6281;49.038;8.372;2023-07-29T07:55:52;2.50;;;2.03;;
12433;SDS011;6281;49.038;8.372;2023-07-29T07:58:20;1.93;;;1.73;;
12433;SDS011;6281;49.038;8.372;2023-07-29T08:00:47;2.40;;;1.80;;
12433;SDS011;6281;49.038;8.372;2023-07-29T08:03:14;2.83;;;1.50;;
12433;SDS011;6281;49.038;8.372;2023-07-29T08:05:41;4.63;;;1.80;;
12433;SDS011;6281;49.038;8.372;2023-07-29T08:08:07;2.00;;;1.80;;
12433;SDS011;6281;49.038;8.372;2023-07-29T08:10:34;3.23;;;1.97;;
12433;SDS011;6281;49.038;8.372;2023-07-29T08:13:01;4.40;;;1.80;;
12433;SDS011;6281;49.038;8.372;2023-07-29T08:15:30;1.73;;;1.30;;
12433;SDS011;6281;49.038;8.372;2023-07-29T08:17:56;2.03;;;1.53;;
12433;SDS011;6281;49.038;8.372;2023-07-29T08:20:23;2.13;;;1.57;;
12433;SDS011;6281;49.038;8.372;2023-07-29T08:22:50;3.40;;;1.60;;
12433;SDS011;6281;49.038;8.372;2023-07-29T08:25:17;1.80;;;1.60;;
12433;SDS011;6281;49.038;8.372;2023-07-29T08:27:44;2.20;;;1.90;;
12433;SDS011;6281;49.038;8.372;2023-07-29T08:30:11;3.73;;;1.37;;
12433;SDS011;6281;49.038;8.372;2023-07-29T08:32:39;1.80;;;1.60;;
12433;SDS011;6281;49.038;8.372;2023-07-29T08:35:06;2.50;;;1.90;;
12433;SDS011;6281;49.038;8.372;2023-07-29T08:37:34;2.33;;;1.73;;
12433;SDS011;6281;49.038;8.372;2023-07-29T08:40:00;3.73;;;1.80;;
12433;SDS011;6281;49.038;8.372;2023-07-29T08:42:29;3.87;;;1.40;;
12433;SDS011;6281;49.038;8.372;2023-07-29T08:44:59;1.60;;;1.40;;
12433;SDS011;6281;49.038;8.372;2023-07-29T08:47:33;3.07;;;1.50;;
12433;SDS011;6281;49.038;8.372;2023-07-29T08:50:02;2.83;;;1.70;;
12433;SDS011;6281;49.038;8.372;2023-07-29T08:52:30;3.67;;;1.30;;
12433;SDS011;6281;49.038;8.372;2023-07-29T08:54:59;1.90;;;1.53;;
12433;SDS011;6281;49.038;8.372;2023-07-29T08:57:26;1.90;;;1.70;;
12433;SDS011;6281;49.038;8.372;2023-07-29T09:02:55;1.77;;;1.60;;
12433;SDS011;6281;49.038;8.372;2023-07-29T09:05:29;1.73;;;1.47;;
12433;SDS011;6281;49.038;8.372;2023-07-29T09:07:55;1.70;;;1.50;;
12433;SDS011;6281;49.038;8.372;2023-07-29T09:10:23;1.60;;;1.30;;
12433;SDS011;6281;49.038;8.372;2023-07-29T09:12:52;1.67;;;1.20;;
12433;SDS011;6281;49.038;8.372;2023-07-29T09:15:26;1.47;;;1.30;;
12433;SDS011;6281;49.038;8.372;2023-07-29T09:17:55;2.60;;;1.30;;
12433;SDS011;6281;49.038;8.372;2023-07-29T09:20:26;1.40;;;1.20;;
12433;SDS011;6281;49.038;8.372;2023-07-29T09:22:58;1.70;;;1.50;;
12433;SDS011;6281;49.038;8.372;2023-07-29T09:25:25;2.00;;;1.57;;
12433;SDS011;6281;49.038;8.372;2023-07-29T09:27:53;1.33;;;1.20;;
12433;SDS011;6281;49.038;8.372;2023-07-29T09:30:26;2.00;;;1.20;;
12433;SDS011;6281;49.038;8.372;2023-07-29T09:32:54;1.40;;;1.30;;
12433;SDS011;6281;49.038;8.372;2023-07-29T09:35:22;3.47;;;1.50;;
12433;SDS011;6281;49.038;8.372;2023-07-29T09:37:50;1.33;;;1.23;;
12433;SDS011;6281;49.038;8.372;2023-07-29T09:40:18;1.10;;;1.00;;
12433;SDS011;6281;49.038;8.372;2023-07-29T09:42:49;1.23;;;1.07;;
12433;SDS011;6281;49.038;8.372;2023-07-29T09:45:20;2.40;;;1.03;;
12433;SDS011;6281;49.038;8.372;2023-07-29T09:47:48;1.47;;;1.07;;
12433;SDS011;6281;49.038;8.372;2023-07-29T09:50:16;1.10;;;1.00;;
12433;SDS011;6281;49.038;8.372;2023-07-29T09:52:43;1.00;;;0.93;;
12433;SDS011;6281;49.038;8.372;2023-07-29T09:55:11;1.13;;;1.00;;
12433;SDS011;6281;49.038;8.372;2023-07-29T09:57:41;1.83;;;0.90;;
12433;SDS011;6281;49.038;8.372;2023-07-29T10:03:21;1.13;;;1.03;;
12433;SDS011;6281;49.038;8.372;2023-07-29T10:05:49;1.93;;;1.10;;
12433;SDS011;6281;49.038;8.372;2023-07-29T10:08:17;1.03;;;0.93;;
12433;SDS011;6281;49.038;8.372;2023-07-29T10:10:45;1.43;;;1.10;;
12433;SDS011;6281;49.038;8.372;2023-07-29T10:13:13;2.00;;;1.23;;
12433;SDS011;6281;49.038;8.372;2023-07-29T10:15:41;2.57;;;1.30;;
12433;SDS011;6281;49.038;8.372;2023-07-29T10:18:10;1.13;;;1.03;;
12433;SDS011;6281;49.038;8.372;2023-07-29T10:20:37;1.60;;;1.10;;
12433;SDS011;6281;49.038;8.372;2023-07-29T10:23:06;2.43;;;1.30;;
12433;SDS011;6281;49.038;8.372;2023-07-29T10:25:37;1.37;;;1.00;;
12433;SDS011;6281;49.038;8.372;2023-07-29T10:28:07;1.30;;;1.20;;
12433;SDS011;6281;49.038;8.372;2023-07-29T10:30:35;1.10;;;1.00;;
12433;SDS011;6281;49.038;8.372;2023-07-29T10:33:02;1.23;;;1.07;;
12433;SDS011;6281;49.038;8.372;2023-07-29T10:35:31;1.00;;;0.90;;
12433;SDS011;6281;49.038;8.372;2023-07-29T10:37:59;1.50;;;1.00;;
12433;SDS011;6281;49.038;8.372;2023-07-29T10:40:40;1.23;;;0.90;;
12433;SDS011;6281;49.038;8.372;2023-07-29T10:43:18;1.63;;;1.00;;
12433;SDS011;6281;49.038;8.372;2023-07-29T10:45:51;1.53;;;0.80;;
12433;SDS011;6281;49.038;8.372;2023-07-29T10:51:22;0.93;;;0.80;;
12433;SDS011;6281;49.038;8.372;2023-07-29T10:53:54;0.70;;;0.70;;
12433;SDS011;6281;49.038;8.372;2023-07-29T10:56:26;1.97;;;0.90;;
12433;SDS011;6281;49.038;8.372;2023-07-29T11:02:15;1.07;;;0.77;;
12433;SDS011;6281;49.038;8.372;2023-07-29T11:04:47;1.23;;;0.90;;
12433;SDS011;6281;49.038;8.372;2023-07-29T11:07:19;1.03;;;0.93;;
12433;SDS011;6281;49.038;8.372;2023-07-29T11:09:52;1.17;;;0.80;;
12433;SDS011;6281;49.038;8.372;2023-07-29T11:12:34;1.10;;;1.00;;
12433;SDS011;6281;49.038;8.372;2023-07-29T11:15:14;1.27;;;1.00;;
12433;SDS011;6281;49.038;8.372;2023-07-29T11:17:44;1.53;;;0.90;;
12433;SDS011;6281;49.038;8.372;2023-07-29T11:20:12;1.30;;;1.10;;
12433;SDS011;6281;49.038;8.372;2023-07-29T11:22:40;0.90;;;0.90;;
12433;SDS011;6281;49.038;8.372;2023-07-29T11:25:08;2.30;;;1.03;;
12433;SDS011;6281;49.038;8.372;2023-07-29T11:27:37;1.90;;;0.87;;
12433;SDS011;6281;49.038;8.372;2023-07-29T11:30:04;1.47;;;0.90;;
12433;SDS011;6281;49.038;8.372;2023-07-29T11:32:33;1.00;;;0.90;;
12433;SDS011;6281;49.038;8.372;2023-07-29T11:35:02;1.10;;;1.00;;
12433;SDS011;6281;49.038;8.372;2023-07-29T11:37:32;1.37;;;1.03;;
12433;SDS011;6281;49.038;8.372;2023-07-29T11:39:59;1.10;;;1.00;;
12433;SDS011;6281;49.038;8.372;2023-07-29T11:42:27;1.20;;;1.07;;
12433;SDS011;6281;49.038;8.372;2023-07-29T11:44:56;2.03;;;0.93;;
12433;SDS011;6281;49.038;8.372;2023-07-29T11:47:23;1.17;;;1.07;;
12433;SDS011;6281;49.038;8.372;2023-07-29T11:49:51;1.17;;;1.07;;
12433;SDS011;6281;49.038;8.372;2023-07-29T11:52:19;2.57;;;1.10;;
12433;SDS011;6281;49.038;8.372;2023-07-29T11:54:47;1.47;;;1.30;;
12433;SDS011;6281;49.038;8.372;2023-07-29T11:57:14;2.23;;;1.27;;
12433;SDS011;6281;49.038;8.372;2023-07-29T11:59:44;1.30;;;1.20;;
12433;SDS011;6281;49.038;8.372;2023-07-29T12:02:13;1.60;;;1.40;;
12433;SDS011;6281;49.038;8.372;2023-07-29T12:04:41;3.03;;;1.23;;
12433;SDS011;6281;49.038;8.372;2023-07-29T12:07:09;4.90;;;1.20;;
12433;SDS011;6281;49.038;8.372;2023-07-29T12:09:38;1.30;;;1.10;;
12433;SDS011;6281;49.038;8.372;2023-07-29T12:12:06;1.60;;;1.20;;
12433;SDS011;6281;49.038;8.372;2023-07-29T12:14:33;1.30;;;1.20;;
12433;SDS011;6281;49.038;8.372;2023-07-29T12:17:01;0.80;;;0.80;;
12433;SDS011;6281;49.038;8.372;2023-07-29T12:19:31;1.20;;;1.10;;
12433;SDS011;6281;49.038;8.372;2023-07-29T12:22:00;1.45;;;1.23;;
12433;SDS011;6281;49.038;8.372;2023-07-29T12:24:27;2.20;;;1.20;;
12433;SDS011;6281;49.038;8.372;2023-07-29T12:26:56;1.20;;;1.08;;
12433;SDS011;6281;49.038;8.372;2023-07-29T12:29:24;1.65;;;1.17;;
12433;SDS011;6281;49.038;8.372;2023-07-29T12:31:56;1.27;;;1.05;;
12433;SDS011;6281;49.038;8.372;2023-07-29T12:34:25;1.58;;;1.00;;
12433;SDS011;6281;49.038;8.372;2023-07-29T12:36:52;1.35;;;1.05;;
12433;SDS011;6281;49.038;8.372;2023-07-29T12:39:20;1.10;;;1.00;;
12433;SDS011;6281;49.038;8.372;2023-07-29T12:41:50;1.50;;;1.40;;
12433;SDS011;6281;49.038;8.372;2023-07-29T12:44:19;2.10;;;0.93;;
12433;SDS011;6281;49.038;8.372;2023-07-29T12:46:46;1.45;;;1.35;;
12433;SDS011;6281;49.038;8.372;2023-07-29T12:49:13;1.17;;;1.08;;
12433;SDS011;6281;49.038;8.372;2023-07-29T12:51:40;1.55;;;1.25;;
12433;SDS011;6281;49.038;8.372;2023-07-29T12:54:07;1.35;;;1.15;;
12433;SDS011;6281;49.038;8.372;2023-07-29T12:56:34;1.20;;;1.10;;
12433;SDS011;6281;49.038;8.372;2023-07-29T12:59:01;1.42;;;1.10;;
12433;SDS011;6281;49.038;8.372;2023-07-29T13:01:30;1.30;;;1.20;;
12433;SDS011;6281;49.038;8.372;2023-07-29T13:03:56;1.02;;;0.93;;
12433;SDS011;6281;49.038;8.372;2023-07-29T13:06:23;1.17;;;1.08;;
12433;SDS011;6281;49.038;8.372;2023-07-29T13:08:50;1.17;;;1.05;;
12433;SDS011;6281;49.038;8.372;2023-07-29T13:11:17;1.30;;;1.20;;
12433;SDS011;6281;49.038;8.372;2023-07-29T13:13:43;1.65;;;0.77;;
12433;SDS011;6281;49.038;8.372;2023-07-29T13:16:11;1.00;;;0.90;;
12433;SDS011;6281;49.038;8.372;2023-07-29T13:18:39;1.10;;;1.00;;
12433;SDS011;6281;49.038;8.372;2023-07-29T13:21:06;1.75;;;1.20;;
12433;SDS011;6281;49.038;8.372;2023-07-29T13:23:33;1.08;;;1.00;;
12433;SDS011;6281;49.038;8.372;2023-07-29T13:26:00;1.40;;;1.02;;
12433;SDS011;6281;49.038;8.372;2023-07-29T13:28:27;1.30;;;1.20;;
12433;SDS011;6281;49.038;8.372;2023-07-29T13:30:54;1.30;;;1.20;;
12433;SDS011;6281;49.038;8.372;2023-07-29T13:33:21;1.00;;;0.90;;
12433;SDS011;6281;49.038;8.372;2023-07-29T13:35:49;1.27;;;1.17;;
12433;SDS011;6281;49.038;8.372;2023-07-29T13:38:16;1.08;;;0.98;;
12433;SDS011;6281;49.038;8.372;2023-07-29T13:40:45;1.10;;;1.00;;
12433;SDS011;6281;49.038;8.372;2023-07-29T13:43:11;1.10;;;1.00;;
12433;SDS011;6281;49.038;8.372;2023-07-29T13:45:40;1.05;;;0.95;;
12433;SDS011;6281;49.038;8.372;2023-07-29T13:48:07;1.25;;;1.15;;
12433;SDS011;6281;49.038;8.372;2023-07-29T13:50:33;1.30;;;1.10;;
12433;SDS011;6281;49.038;8.372;2023-07-29T13:53:02;1.10;;;1.00;;
12433;SDS011;6281;49.038;8.372;2023-07-29T13:55:29;1.42;;;1.20;;
12433;SDS011;6281;49.038;8.372;2023-07-29T13:57:56;1.48;;;1.38;;
12433;SDS011;6281;49.038;8.372;2023-07-29T14:00:23;1.27;;;1.17;;
12433;SDS011;6281;49.038;8.372;2023-07-29T14:02:50;1.30;;;1.10;;
12433;SDS011;6281;49.038;8.372;2023-07-29T14:05:16;1.27;;;1.17;;
12433;SDS011;6281;49.038;8.372;2023-07-29T14:07:43;1.40;;;1.20;;
12433;SDS011;6281;49.038;8.372;2023-07-29T14:10:12;1.15;;;1.02;;
12433;SDS011;6281;49.038;8.372;2023-07-29T14:12:38;1.13;;;1.02;;
12433;SDS011;6281;49.038;8.372;2023-07-29T14:15:06;2.78;;;1.17;;
12433;SDS011;6281;49.038;8.372;2023-07-29T14:17:33;1.10;;;1.00;;
12433;SDS011;6281;49.038;8.372;2023-07-29T14:20:00;2.50;;;1.33;;
12433;SDS011;6281;49.038;8.372;2023-07-29T14:22:28;1.42;;;1.30;;
12433;SDS011;6281;49.038;8.372;2023-07-29T14:24:54;1.27;;;1.00;;
12433;SDS011;6281;49.038;8.372;2023-07-29T14:27:22;1.30;;;1.00;;
12433;SDS011;6281;49.038;8.372;2023-07-29T14:29:49;1.92;;;1.30;;
12433;SDS011;6281;49.038;8.372;2023-07-29T14:32:16;1.15;;;1.00;;
12433;SDS011;6281;49.038;8.372;2023-07-29T14:34:44;1.35;;;1.17;;
12433;SDS011;6281;49.038;8.372;2023-07-29T14:37:11;2.45;;;1.10;;
12433;SDS011;6281;49.038;8.372;2023-07-29T14:39:37;1.13;;;1.02;;
12433;SDS011;6281;49.038;8.372;2023-07-29T14:42:04;1.40;;;1.20;;
12433;SDS011;6281;49.038;8.372;2023-07-29T14:44:34;1.20;;;1.10;;
12433;SDS011;6281;49.038;8.372;2023-07-29T14:47:01;2.13;;;1.40;;
12433;SDS011;6281;49.038;8.372;2023-07-29T14:49:28;1.23;;;1.05;;
12433;SDS011;6281;49.038;8.372;2023-07-29T14:51:55;3.20;;;1.08;;
12433;SDS011;6281;49.038;8.372;2023-07-29T14:54:21;1.42;;;1.05;;
12433;SDS011;6281;49.038;8.372;2023-07-29T14:56:48;1.55;;;1.10;;
12433;SDS011;6281;49.038;8.372;2023-07-29T14:59:15;1.70;;;1.30;;
12433;SDS011;6281;49.038;8.372;2023-07-29T15:01:44;1.42;;;1.33;;
12433;SDS011;6281;49.038;8.372;2023-07-29T15:04:10;2.28;;;1.00;;
12433;SDS011;6281;49.038;8.372;2023-07-29T15:06:37;1.20;;;1.10;;
12433;SDS011;6281;49.038;8.372;2023-07-29T15:09:04;1.30;;;1.20;;
12433;SDS011;6281;49.038;8.372;2023-07-29T15:11:32;1.42;;;1.00;;
12433;SDS011;6281;49.038;8.372;2023-07-29T15:13:59;1.75;;;1.30;;
12433;SDS011;6281;49.038;8.372;2023-07-29T15:16:29;1.25;;;1.00;;
12433;SDS011;6281;49.038;8.372;2023-07-29T15:18:57;1.35;;;1.25;;